createdAt,value
2018-09-06T00:00:43.704Z,1016.27
2018-09-06T00:01:53.287Z,1016.21
2018-09-06T00:03:02.321Z,1016.23
2018-09-06T00:04:11.092Z,1016.18
2018-09-06T00:05:20.943Z,1016.16
2018-09-06T00:06:30.789Z,1016.2
2018-09-06T00:07:40.633Z,1016.22
2018-09-06T00:08:50.205Z,1016.23
2018-09-06T00:10:00.052Z,1016.25
2018-09-06T00:11:09.622Z,1016.23
2018-09-06T00:12:18.933Z,1016.24
2018-09-06T00:13:28.514Z,1016.24
2018-09-06T00:14:38.355Z,1016.26
2018-09-06T00:15:47.661Z,1016.24
2018-09-06T00:16:56.973Z,1016.26
2018-09-06T00:18:06.827Z,1016.25
2018-09-06T00:19:16.403Z,1016.28
2018-09-06T00:20:25.989Z,1016.24
2018-09-06T00:21:35.835Z,1016.26
2018-09-06T00:22:45.469Z,1016.25
2018-09-06T00:23:55.597Z,1016.25
2018-09-06T00:25:05.446Z,1016.21
2018-09-06T00:26:15.559Z,1016.24
2018-09-06T00:27:25.411Z,1016.19
2018-09-06T00:28:35.309Z,1016.2
2018-09-06T00:29:45.424Z,1016.19
2018-09-06T00:30:55.004Z,1016.14
2018-09-06T00:32:04.862Z,1016.15
2018-09-06T00:33:14.712Z,1016.16
2018-09-06T00:34:24.556Z,1016.13
2018-09-06T00:35:34.141Z,1016.13
2018-09-06T00:36:43.716Z,1016.14
2018-09-06T00:37:53.294Z,1016.13
2018-09-06T00:39:02.872Z,1016.13
2018-09-06T00:40:12.699Z,1016.13
2018-09-06T00:41:22.548Z,1016.1
2018-09-06T00:42:32.663Z,1016.14
2018-09-06T00:43:41.970Z,1016.12
2018-09-06T00:44:51.553Z,1016.12
2018-09-06T00:46:01.401Z,1016.1
2018-09-06T00:47:10.706Z,1016.09
2018-09-06T00:48:20.556Z,1016.06
2018-09-06T00:49:30.407Z,1016.09
2018-09-06T00:50:39.985Z,1016.05
2018-09-06T00:51:50.099Z,1016.01
2018-09-06T00:52:58.862Z,1016.05
2018-09-06T00:54:08.707Z,1016
2018-09-06T00:55:18.017Z,1015.99
2018-09-06T00:56:27.605Z,1015.99
2018-09-06T00:57:37.454Z,1015.98
2018-09-06T00:58:47.020Z,1015.98
2018-09-06T00:59:56.867Z,1015.98
2018-09-06T01:01:06.723Z,1016
2018-09-06T01:02:16.563Z,1015.96
2018-09-06T01:03:26.402Z,1015.96
2018-09-06T01:04:36.509Z,1015.95
2018-09-06T01:05:46.408Z,1015.92
2018-09-06T01:06:55.987Z,1015.92
2018-09-06T01:08:06.103Z,1015.92
2018-09-06T01:09:16.217Z,1015.91
2018-09-06T01:10:25.801Z,1015.92
2018-09-06T01:11:35.645Z,1015.88
2018-09-06T01:12:45.213Z,1015.88
2018-09-06T01:13:55.052Z,1015.88
2018-09-06T01:15:04.945Z,1015.85
2018-09-06T01:16:14.786Z,1015.89
2018-09-06T01:17:23.822Z,1015.84
2018-09-06T01:18:33.668Z,1015.83
2018-09-06T01:19:43.775Z,1015.79
2018-09-06T01:20:53.356Z,1015.87
2018-09-06T01:22:02.931Z,1015.85
2018-09-06T01:23:12.500Z,1015.86
2018-09-06T01:24:22.345Z,1015.81
2018-09-06T01:25:32.191Z,1015.78
2018-09-06T01:26:42.302Z,1015.8
2018-09-06T01:27:52.146Z,1015.75
2018-09-06T01:29:02.260Z,1015.77
2018-09-06T01:30:12.375Z,1015.76
2018-09-06T01:31:22.223Z,1015.75
2018-09-06T01:32:32.335Z,1015.72
2018-09-06T01:33:42.451Z,1015.75
2018-09-06T01:34:52.565Z,1015.72
2018-09-06T01:36:02.418Z,1015.71
2018-09-06T01:37:12.535Z,1015.69
2018-09-06T01:38:22.120Z,1015.64
2018-09-06T01:39:32.258Z,1015.65
2018-09-06T01:40:42.375Z,1015.65
2018-09-06T01:41:51.683Z,1015.65
2018-09-06T01:43:01.527Z,1015.63
2018-09-06T01:44:11.162Z,1015.58
2018-09-06T01:45:21.017Z,1015.54
2018-09-06T01:46:30.872Z,1015.52
2018-09-06T01:47:40.448Z,1015.58
2018-09-06T01:48:49.756Z,1015.5
2018-09-06T01:49:59.874Z,1015.51
2018-09-06T01:51:09.181Z,1015.47
2018-09-06T01:52:18.753Z,1015.48
2018-09-06T01:53:28.591Z,1015.48
2018-09-06T01:54:37.623Z,1015.51
2018-09-06T01:55:47.533Z,1015.48
2018-09-06T01:56:57.370Z,1015.46
2018-09-06T01:58:07.493Z,1015.42
2018-09-06T01:59:17.338Z,1015.41
2018-09-06T02:00:27.194Z,1015.39
2018-09-06T02:01:37.050Z,1015.41
2018-09-06T02:02:46.895Z,1015.4
2018-09-06T02:03:57.010Z,1015.42
2018-09-06T02:05:06.592Z,1015.43
2018-09-06T02:06:16.449Z,1015.39
2018-09-06T02:07:26.027Z,1015.42
2018-09-06T02:08:35.883Z,1015.44
2018-09-06T02:09:45.716Z,1015.41
2018-09-06T02:10:55.017Z,1015.38
2018-09-06T02:12:04.596Z,1015.37
2018-09-06T02:13:14.440Z,1015.41
2018-09-06T02:14:24.018Z,1015.37
2018-09-06T02:15:33.870Z,1015.35
2018-09-06T02:16:43.712Z,1015.32
2018-09-06T02:17:52.742Z,1015.35
2018-09-06T02:19:02.398Z,1015.31
2018-09-06T02:20:12.248Z,1015.33
2018-09-06T02:21:21.814Z,1015.32
2018-09-06T02:22:31.390Z,1015.28
2018-09-06T02:23:41.229Z,1015.28
2018-09-06T02:24:50.795Z,1015.29
2018-09-06T02:26:00.905Z,1015.25
2018-09-06T02:27:11.019Z,1015.25
2018-09-06T02:28:20.861Z,1015.2
2018-09-06T02:29:30.166Z,1015.21
2018-09-06T02:30:40.271Z,1015.17
2018-09-06T02:31:50.398Z,1015.17
2018-09-06T02:32:59.980Z,1015.18
2018-09-06T02:34:09.559Z,1015.13
2018-09-06T02:35:19.400Z,1015.14
2018-09-06T02:36:29.516Z,1015.14
2018-09-06T02:37:39.083Z,1015.11
2018-09-06T02:38:48.660Z,1015.09
2018-09-06T02:39:58.502Z,1015.11
2018-09-06T02:41:08.094Z,1015.07
2018-09-06T02:42:18.254Z,1015.07
2018-09-06T02:43:28.107Z,1015.04
2018-09-06T02:44:37.677Z,1015.03
2018-09-06T02:45:47.541Z,1015.01
2018-09-06T02:46:57.654Z,1014.98
2018-09-06T02:48:07.274Z,1015.02
2018-09-06T02:49:16.584Z,1014.98
2018-09-06T02:50:25.888Z,1014.96
2018-09-06T02:51:35.732Z,1014.94
2018-09-06T02:52:45.579Z,1014.93
2018-09-06T02:53:55.850Z,1014.94
2018-09-06T02:55:05.981Z,1014.91
2018-09-06T02:56:16.114Z,1014.92
2018-09-06T02:57:25.956Z,1014.89
2018-09-06T02:58:35.799Z,1014.87
2018-09-06T02:59:45.371Z,1014.88
2018-09-06T03:00:54.946Z,1014.87
2018-09-06T03:02:05.072Z,1014.91
2018-09-06T03:03:14.370Z,1014.88
2018-09-06T03:04:23.675Z,1014.85
2018-09-06T03:05:33.307Z,1014.84
2018-09-06T03:06:43.153Z,1014.87
2018-09-06T03:07:53.295Z,1014.85
2018-09-06T03:09:03.140Z,1014.88
2018-09-06T03:10:12.984Z,1014.87
2018-09-06T03:11:22.842Z,1014.9
2018-09-06T03:12:32.694Z,1014.87
2018-09-06T03:13:42.005Z,1014.88
2018-09-06T03:14:52.115Z,1014.85
2018-09-06T03:16:01.954Z,1014.83
2018-09-06T03:17:12.074Z,1014.81
2018-09-06T03:18:21.653Z,1014.81
2018-09-06T03:19:31.497Z,1014.85
2018-09-06T03:20:41.348Z,1014.8
2018-09-06T03:21:50.645Z,1014.79
2018-09-06T03:22:59.679Z,1014.74
2018-09-06T03:24:09.795Z,1014.75
2018-09-06T03:25:19.377Z,1014.74
2018-09-06T03:26:29.232Z,1014.71
2018-09-06T03:27:38.811Z,1014.73
2018-09-06T03:28:48.385Z,1014.73
2018-09-06T03:29:58.231Z,1014.75
2018-09-06T03:31:07.549Z,1014.74
2018-09-06T03:32:17.672Z,1014.69
2018-09-06T03:33:27.535Z,1014.68
2018-09-06T03:34:37.433Z,1014.68
2018-09-06T03:35:46.801Z,1014.69
2018-09-06T03:36:56.533Z,1014.73
2018-09-06T03:38:05.838Z,1014.74
2018-09-06T03:39:15.960Z,1014.77
2018-09-06T03:40:25.533Z,1014.73
2018-09-06T03:41:35.113Z,1014.7
2018-09-06T03:42:44.967Z,1014.72
2018-09-06T03:43:54.271Z,1014.7
2018-09-06T03:45:03.575Z,1014.71
2018-09-06T03:46:13.423Z,1014.69
2018-09-06T03:47:23.265Z,1014.65
2018-09-06T03:48:33.384Z,1014.68
2018-09-06T03:49:43.287Z,1014.69
2018-09-06T03:50:52.865Z,1014.68
2018-09-06T03:52:02.168Z,1014.64
2018-09-06T03:53:11.472Z,1014.69
2018-09-06T03:54:21.056Z,1014.65
2018-09-06T03:55:30.896Z,1014.65
2018-09-06T03:56:40.465Z,1014.65
2018-09-06T03:57:50.319Z,1014.66
2018-09-06T03:59:00.431Z,1014.67
2018-09-06T04:00:09.748Z,1014.64
2018-09-06T04:01:19.874Z,1014.63
2018-09-06T04:02:29.447Z,1014.68
2018-09-06T04:03:39.023Z,1014.59
2018-09-06T04:04:48.874Z,1014.61
2018-09-06T04:05:58.721Z,1014.61
2018-09-06T04:07:08.301Z,1014.62
2018-09-06T04:08:17.878Z,1014.59
2018-09-06T04:09:27.718Z,1014.62
2018-09-06T04:10:37.297Z,1014.64
2018-09-06T04:11:46.604Z,1014.63
2018-09-06T04:12:56.769Z,1014.63
2018-09-06T04:14:06.616Z,1014.6
2018-09-06T04:15:16.475Z,1014.57
2018-09-06T04:16:26.316Z,1014.55
2018-09-06T04:17:36.429Z,1014.53
2018-09-06T04:18:46.003Z,1014.55
2018-09-06T04:19:55.852Z,1014.52
2018-09-06T04:21:05.472Z,1014.53
2018-09-06T04:22:15.315Z,1014.53
2018-09-06T04:23:24.891Z,1014.48
2018-09-06T04:24:34.467Z,1014.49
2018-09-06T04:25:44.590Z,1014.48
2018-09-06T04:26:54.755Z,1014.43
2018-09-06T04:28:04.598Z,1014.44
2018-09-06T04:29:14.449Z,1014.46
2018-09-06T04:30:24.032Z,1014.45
2018-09-06T04:31:33.613Z,1014.47
2018-09-06T04:32:43.449Z,1014.45
2018-09-06T04:33:53.028Z,1014.46
2018-09-06T04:35:02.881Z,1014.44
2018-09-06T04:36:12.265Z,1014.42
2018-09-06T04:37:22.687Z,1014.37
2018-09-06T04:38:32.802Z,1014.36
2018-09-06T04:39:42.656Z,1014.43
2018-09-06T04:40:52.229Z,1014.44
2018-09-06T04:42:01.807Z,1014.43
2018-09-06T04:43:11.646Z,1014.42
2018-09-06T04:44:21.774Z,1014.41
2018-09-06T04:45:31.638Z,1014.4
2018-09-06T04:46:41.491Z,1014.39
2018-09-06T04:47:51.066Z,1014.38
2018-09-06T04:49:00.913Z,1014.4
2018-09-06T04:50:10.231Z,1014.35
2018-09-06T04:51:19.816Z,1014.37
2018-09-06T04:52:29.933Z,1014.39
2018-09-06T04:53:39.829Z,1014.36
2018-09-06T04:54:49.136Z,1014.33
2018-09-06T04:55:58.764Z,1014.35
2018-09-06T04:57:08.613Z,1014.34
2018-09-06T04:58:18.498Z,1014.34
2018-09-06T04:59:29.023Z,1014.35
2018-09-06T05:00:38.056Z,1014.34
2018-09-06T05:01:47.925Z,1014.34
2018-09-06T05:02:57.503Z,1014.35
2018-09-06T05:04:07.364Z,1014.34
2018-09-06T05:05:17.702Z,1014.33
2018-09-06T05:06:27.286Z,1014.34
2018-09-06T05:07:37.132Z,1014.3
2018-09-06T05:08:46.714Z,1014.32
2018-09-06T05:09:56.291Z,1014.33
2018-09-06T05:11:06.144Z,1014.29
2018-09-06T05:12:15.726Z,1014.33
2018-09-06T05:13:25.842Z,1014.35
2018-09-06T05:14:35.414Z,1014.36
2018-09-06T05:15:44.988Z,1014.35
2018-09-06T05:16:54.835Z,1014.33
2018-09-06T05:18:04.678Z,1014.33
2018-09-06T05:19:14.061Z,1014.31
2018-09-06T05:20:24.175Z,1014.35
2018-09-06T05:21:33.743Z,1014.38
2018-09-06T05:22:43.320Z,1014.32
2018-09-06T05:23:52.626Z,1014.33
2018-09-06T05:25:02.194Z,1014.35
2018-09-06T05:26:12.328Z,1014.35
2018-09-06T05:27:21.902Z,1014.34
2018-09-06T05:28:31.474Z,1014.34
2018-09-06T05:29:41.311Z,1014.33
2018-09-06T05:30:50.978Z,1014.35
2018-09-06T05:32:00.790Z,1014.35
2018-09-06T05:33:10.361Z,1014.32
2018-09-06T05:34:20.254Z,1014.34
2018-09-06T05:35:30.369Z,1014.33
2018-09-06T05:36:39.945Z,1014.29
2018-09-06T05:37:49.800Z,1014.32
2018-09-06T05:38:59.367Z,1014.31
2018-09-06T05:40:09.207Z,1014.28
2018-09-06T05:41:19.326Z,1014.29
2018-09-06T05:42:29.163Z,1014.26
2018-09-06T05:43:39.281Z,1014.28
2018-09-06T05:44:48.588Z,1014.25
2018-09-06T05:45:57.889Z,1014.27
2018-09-06T05:47:07.494Z,1014.23
2018-09-06T05:48:17.377Z,1014.22
2018-09-06T05:49:27.501Z,1014.22
2018-09-06T05:50:36.800Z,1014.25
2018-09-06T05:51:46.907Z,1014.21
2018-09-06T05:52:56.749Z,1014.19
2018-09-06T05:54:06.372Z,1014.17
2018-09-06T05:55:16.229Z,1014.18
2018-09-06T05:56:26.073Z,1014.12
2018-09-06T05:57:36.181Z,1014.15
2018-09-06T05:58:45.755Z,1014.15
2018-09-06T05:59:55.411Z,1014.12
2018-09-06T06:01:05.159Z,1014.06
2018-09-06T06:02:14.736Z,1014.1
2018-09-06T06:03:24.039Z,1014.1
2018-09-06T06:04:33.342Z,1014.09
2018-09-06T06:05:43.185Z,1014.08
2018-09-06T06:06:53.095Z,1014.07
2018-09-06T06:08:02.665Z,1014.11
2018-09-06T06:09:11.972Z,1014.09
2018-09-06T06:10:21.862Z,1014.08
2018-09-06T06:11:32.022Z,1014.12
2018-09-06T06:12:41.664Z,1014.1
2018-09-06T06:13:51.237Z,1014.09
2018-09-06T06:15:00.807Z,1014.11
2018-09-06T06:16:10.387Z,1014.11
2018-09-06T06:17:19.956Z,1014.12
2018-09-06T06:18:29.533Z,1014.1
2018-09-06T06:19:39.652Z,1014.12
2018-09-06T06:20:49.510Z,1014.12
2018-09-06T06:21:59.361Z,1014.12
2018-09-06T06:23:08.717Z,1014.16
2018-09-06T06:24:18.303Z,1014.13
2018-09-06T06:25:28.155Z,1014.13
2018-09-06T06:26:37.734Z,1014.14
2018-09-06T06:27:47.628Z,1014.16
2018-09-06T06:28:57.481Z,1014.17
2018-09-06T06:30:07.058Z,1014.13
2018-09-06T06:31:17.170Z,1014.16
2018-09-06T06:32:26.468Z,1014.1
2018-09-06T06:33:36.318Z,1014.05
2018-09-06T06:34:46.482Z,1014.01
2018-09-06T06:35:56.325Z,1013.97
2018-09-06T06:37:06.172Z,1013.97
2018-09-06T06:38:15.471Z,1013.99
2018-09-06T06:39:25.051Z,1013.98
2018-09-06T06:40:34.625Z,1013.96
2018-09-06T06:41:44.745Z,1013.98
2018-09-06T06:42:54.050Z,1013.98
2018-09-06T06:44:04.163Z,1014
2018-09-06T06:45:14.013Z,1013.98
2018-09-06T06:46:24.128Z,1013.97
2018-09-06T06:47:33.742Z,1013.96
2018-09-06T06:48:43.590Z,1013.96
2018-09-06T06:49:53.163Z,1013.89
2018-09-06T06:51:03.015Z,1013.93
2018-09-06T06:52:12.862Z,1013.9
2018-09-06T06:53:22.443Z,1013.89
2018-09-06T06:54:32.553Z,1013.88
2018-09-06T06:55:42.396Z,1013.88
2018-09-06T06:56:52.249Z,1013.87
2018-09-06T06:58:01.878Z,1013.86
2018-09-06T06:59:11.735Z,1013.85
2018-09-06T07:00:21.577Z,1013.82
2018-09-06T07:01:31.430Z,1013.88
2018-09-06T07:02:41.545Z,1013.88
2018-09-06T07:03:51.659Z,1013.84
2018-09-06T07:05:01.500Z,1013.8
2018-09-06T07:06:11.354Z,1013.83
2018-09-06T07:07:21.195Z,1013.81
2018-09-06T07:08:31.044Z,1013.86
2018-09-06T07:09:41.159Z,1013.87
2018-09-06T07:10:50.745Z,1013.84
2018-09-06T07:12:00.322Z,1013.85
2018-09-06T07:13:10.165Z,1013.84
2018-09-06T07:14:19.740Z,1013.82
2018-09-06T07:15:29.583Z,1013.79
2018-09-06T07:16:39.430Z,1013.79
2018-09-06T07:17:49.274Z,1013.81
2018-09-06T07:18:58.849Z,1013.82
2018-09-06T07:20:08.424Z,1013.79
2018-09-06T07:21:17.999Z,1013.82
2018-09-06T07:22:28.116Z,1013.81
2018-09-06T07:23:38.241Z,1013.74
2018-09-06T07:24:48.091Z,1013.76
2018-09-06T07:25:57.936Z,1013.75
2018-09-06T07:27:07.851Z,1013.73
2018-09-06T07:28:17.424Z,1013.75
2018-09-06T07:29:27.001Z,1013.67
2018-09-06T07:30:37.126Z,1013.7
2018-09-06T07:31:47.119Z,1013.66
2018-09-06T07:32:56.426Z,1013.66
2018-09-06T07:34:06.279Z,1013.66
2018-09-06T07:35:16.173Z,1013.72
2018-09-06T07:36:25.713Z,1013.74
2018-09-06T07:37:35.831Z,1013.74
2018-09-06T07:38:45.140Z,1013.74
2018-09-06T07:39:54.714Z,1013.71
2018-09-06T07:41:04.293Z,1013.71
2018-09-06T07:42:14.221Z,1013.68
2018-09-06T07:43:24.061Z,1013.73
2018-09-06T07:44:33.908Z,1013.71
2018-09-06T07:45:43.757Z,1013.67
2018-09-06T07:46:53.889Z,1013.68
2018-09-06T07:48:04.087Z,1013.71
2018-09-06T07:49:13.661Z,1013.68
2018-09-06T07:50:23.783Z,1013.71
2018-09-06T07:51:33.754Z,1013.76
2018-09-06T07:52:44.054Z,1013.74
2018-09-06T07:53:53.625Z,1013.73
2018-09-06T07:55:02.933Z,1013.71
2018-09-06T07:56:12.522Z,1013.69
2018-09-06T07:57:22.090Z,1013.67
2018-09-06T07:58:31.661Z,1013.67
2018-09-06T07:59:40.969Z,1013.69
2018-09-06T08:00:50.544Z,1013.65
2018-09-06T08:02:00.659Z,1013.66
2018-09-06T08:03:10.505Z,1013.64
2018-09-06T08:04:20.358Z,1013.64
2018-09-06T08:05:30.513Z,1013.62
2018-09-06T08:06:40.090Z,1013.62
2018-09-06T08:07:50.268Z,1013.6
2018-09-06T08:08:59.846Z,1013.57
2018-09-06T08:10:09.696Z,1013.59
2018-09-06T08:11:19.539Z,1013.63
2018-09-06T08:12:28.840Z,1013.59
2018-09-06T08:13:38.691Z,1013.61
2018-09-06T08:14:48.533Z,1013.61
2018-09-06T08:15:58.392Z,1013.62
2018-09-06T08:17:08.240Z,1013.63
2018-09-06T08:18:18.357Z,1013.62
2018-09-06T08:19:27.942Z,1013.63
2018-09-06T08:20:37.518Z,1013.66
2018-09-06T08:21:47.369Z,1013.66
2018-09-06T08:22:56.675Z,1013.59
2018-09-06T08:24:06.533Z,1013.58
2018-09-06T08:25:16.376Z,1013.51
2018-09-06T08:26:26.492Z,1013.48
2018-09-06T08:27:36.599Z,1013.49
2018-09-06T08:28:46.445Z,1013.49
2018-09-06T08:29:55.484Z,1013.47
2018-09-06T08:31:04.871Z,1013.47
2018-09-06T08:32:15.607Z,1013.48
2018-09-06T08:33:25.183Z,1013.47
2018-09-06T08:34:34.764Z,1013.47
2018-09-06T08:35:44.890Z,1013.51
2018-09-06T08:36:54.771Z,1013.49
2018-09-06T08:38:04.887Z,1013.46
2018-09-06T08:39:15.008Z,1013.46
2018-09-06T08:40:24.418Z,1013.51
2018-09-06T08:41:34.554Z,1013.5
2018-09-06T08:42:44.174Z,1013.5
2018-09-06T08:43:54.011Z,1013.44
2018-09-06T08:45:03.858Z,1013.48
2018-09-06T08:46:13.999Z,1013.46
2018-09-06T08:47:23.587Z,1013.45
2018-09-06T08:48:33.024Z,1013.48
2018-09-06T08:49:42.603Z,1013.44
2018-09-06T08:50:52.458Z,1013.41
2018-09-06T08:52:02.363Z,1013.46
2018-09-06T08:53:12.174Z,1013.43
2018-09-06T08:54:21.215Z,1013.46
2018-09-06T08:55:31.108Z,1013.43
2018-09-06T08:56:40.688Z,1013.48
2018-09-06T08:57:50.535Z,1013.44
2018-09-06T08:59:00.648Z,1013.45
2018-09-06T09:00:10.283Z,1013.48
2018-09-06T09:01:19.865Z,1013.44
2018-09-06T09:02:29.503Z,1013.41
2018-09-06T09:03:40.023Z,1013.44
2018-09-06T09:04:50.164Z,1013.38
2018-09-06T09:06:00.383Z,1013.4
2018-09-06T09:07:10.586Z,1013.41
2018-09-06T09:08:20.447Z,1013.38
2018-09-06T09:09:31.069Z,1013.34
2018-09-06T09:10:40.702Z,1013.35
2018-09-06T09:11:49.740Z,1013.33
2018-09-06T09:12:59.872Z,1013.34
2018-09-06T09:14:09.972Z,1013.36
2018-09-06T09:15:19.820Z,1013.31
2018-09-06T09:16:29.942Z,1013.31
2018-09-06T09:17:39.252Z,1013.34
2018-09-06T09:18:49.145Z,1013.29
2018-09-06T09:19:58.722Z,1013.29
2018-09-06T09:21:08.576Z,1013.28
2018-09-06T09:22:18.206Z,1013.29
2018-09-06T09:23:29.303Z,1013.25
2018-09-06T09:24:38.608Z,1013.23
2018-09-06T09:25:48.180Z,1013.23
2018-09-06T09:26:57.756Z,1013.2
2018-09-06T09:28:07.343Z,1013.21
2018-09-06T09:29:17.194Z,1013.17
2018-09-06T09:30:26.819Z,1013.18
2018-09-06T09:31:36.940Z,1013.16
2018-09-06T09:32:46.836Z,1013.14
2018-09-06T09:33:56.100Z,1013.16
2018-09-06T09:35:06.220Z,1013.05
2018-09-06T09:36:15.803Z,1013.07
2018-09-06T09:37:25.651Z,1013.04
2018-09-06T09:38:35.497Z,1013.08
2018-09-06T09:39:45.123Z,1013.08
2018-09-06T09:40:55.236Z,1013.06
2018-09-06T09:42:05.086Z,1013.01
2018-09-06T09:43:15.228Z,1012.99
2018-09-06T09:44:25.872Z,1013
2018-09-06T09:45:35.991Z,1013
2018-09-06T09:47:54.143Z,1012.97
2018-09-06T09:49:03.993Z,1012.94
2018-09-06T09:51:22.426Z,1012.94
2018-09-06T09:52:32.010Z,1012.85
2018-09-06T09:53:41.867Z,1012.86
2018-09-06T09:54:51.448Z,1012.85
2018-09-06T09:56:01.028Z,1012.84
2018-09-06T09:57:10.993Z,1012.81
2018-09-06T09:58:20.664Z,1012.82
2018-09-06T09:59:30.529Z,1012.78
2018-09-06T10:00:40.379Z,1012.74
2018-09-06T10:01:49.956Z,1012.75
2018-09-06T10:03:00.074Z,1012.72
2018-09-06T10:04:09.927Z,1012.75
2018-09-06T10:05:19.773Z,1012.7
2018-09-06T10:06:28.821Z,1012.66
2018-09-06T10:07:38.766Z,1012.73
2018-09-06T10:08:48.613Z,1012.61
2018-09-06T10:09:58.725Z,1012.63
2018-09-06T10:11:08.299Z,1012.61
2018-09-06T10:12:18.150Z,1012.62
2018-09-06T10:13:28.000Z,1012.62
2018-09-06T10:14:37.873Z,1012.58
2018-09-06T10:15:48.035Z,1012.58
2018-09-06T10:16:57.612Z,1012.54
2018-09-06T10:18:07.495Z,1012.52
2018-09-06T10:19:18.109Z,1012.51
2018-09-06T10:20:27.954Z,1012.52
2018-09-06T10:21:37.266Z,1012.53
2018-09-06T10:22:47.392Z,1012.55
2018-09-06T10:23:57.518Z,1012.51
2018-09-06T10:25:07.089Z,1012.52
2018-09-06T10:26:16.670Z,1012.53
2018-09-06T10:27:26.571Z,1012.51
2018-09-06T10:28:36.691Z,1012.48
2018-09-06T10:29:46.545Z,1012.49
2018-09-06T10:30:56.188Z,1012.45
2018-09-06T10:32:06.037Z,1012.39
2018-09-06T10:33:16.159Z,1012.4
2018-09-06T10:34:26.285Z,1012.43
2018-09-06T10:35:36.145Z,1012.39
2018-09-06T10:36:46.261Z,1012.36
2018-09-06T10:37:56.139Z,1012.33
2018-09-06T10:39:06.039Z,1012.32
2018-09-06T10:40:16.343Z,1012.3
2018-09-06T10:41:25.979Z,1012.25
2018-09-06T10:42:35.853Z,1012.24
2018-09-06T10:43:45.164Z,1012.27
2018-09-06T10:44:55.017Z,1012.25
2018-09-06T10:46:05.149Z,1012.17
2018-09-06T10:47:15.272Z,1012.24
2018-09-06T10:48:25.148Z,1012.19
2018-09-06T10:49:35.272Z,1012.15
2018-09-06T10:50:44.848Z,1012.11
2018-09-06T10:51:54.157Z,1012.13
2018-09-06T10:53:03.744Z,1012.13
2018-09-06T10:54:13.604Z,1012.06
2018-09-06T10:55:23.460Z,1012.03
2018-09-06T10:56:33.315Z,1012.01
2018-09-06T10:57:43.168Z,1012.05
2018-09-06T10:58:52.476Z,1012.03
2018-09-06T11:00:02.049Z,1012.03
2018-09-06T11:01:11.630Z,1012
2018-09-06T11:02:21.211Z,1011.99
2018-09-06T11:03:31.332Z,1011.94
2018-09-06T11:04:40.911Z,1011.96
2018-09-06T11:05:50.224Z,1011.97
2018-09-06T11:06:59.562Z,1011.97
2018-09-06T11:08:09.903Z,1011.96
2018-09-06T11:09:20.167Z,1011.92
2018-09-06T11:10:30.014Z,1011.9
2018-09-06T11:11:39.588Z,1011.89
2018-09-06T11:12:48.900Z,1011.94
2018-09-06T11:13:58.482Z,1011.91
2018-09-06T11:15:08.432Z,1011.91
2018-09-06T11:16:17.921Z,1011.89
2018-09-06T11:17:27.769Z,1011.9
2018-09-06T11:18:37.622Z,1011.89
2018-09-06T11:19:47.202Z,1011.88
2018-09-06T11:20:56.278Z,1011.86
2018-09-06T11:22:06.761Z,1011.85
2018-09-06T11:23:19.342Z,1011.8
2018-09-06T11:24:28.932Z,1011.82
2018-09-06T11:25:38.505Z,1011.83
2018-09-06T11:26:48.637Z,1011.8
2018-09-06T11:27:58.768Z,1011.83
2018-09-06T11:29:08.074Z,1011.83
2018-09-06T11:30:18.278Z,1011.77
2018-09-06T11:31:27.586Z,1011.81
2018-09-06T11:32:37.710Z,1011.77
2018-09-06T11:33:47.056Z,1011.77
2018-09-06T11:34:57.185Z,1011.78
2018-09-06T11:36:06.498Z,1011.76
2018-09-06T11:37:16.351Z,1011.79
2018-09-06T11:38:25.939Z,1011.76
2018-09-06T11:39:35.797Z,1011.77
2018-09-06T11:40:45.917Z,1011.68
2018-09-06T11:41:55.497Z,1011.72
2018-09-06T11:43:05.616Z,1011.7
2018-09-06T11:44:15.469Z,1011.74
2018-09-06T11:45:24.802Z,1011.71
2018-09-06T11:46:34.111Z,1011.65
2018-09-06T11:47:43.550Z,1011.64
2018-09-06T11:48:53.638Z,1011.63
2018-09-06T11:50:03.225Z,1011.68
2018-09-06T11:51:12.856Z,1011.67
2018-09-06T11:52:22.976Z,1011.66
2018-09-06T11:53:32.292Z,1011.66
2018-09-06T11:54:41.601Z,1011.64
2018-09-06T11:55:50.913Z,1011.61
2018-09-06T11:57:00.807Z,1011.66
2018-09-06T11:58:10.948Z,1011.62
2018-09-06T11:59:20.804Z,1011.56
2018-09-06T12:00:30.923Z,1011.53
2018-09-06T12:01:40.501Z,1011.5
2018-09-06T12:02:50.108Z,1011.46
2018-09-06T12:03:59.417Z,1011.51
2018-09-06T12:05:09.280Z,1011.51
2018-09-06T12:06:19.181Z,1011.51
2018-09-06T12:07:28.764Z,1011.5
2018-09-06T12:08:38.346Z,1011.42
2018-09-06T12:09:48.192Z,1011.44
2018-09-06T12:10:58.047Z,1011.41
2018-09-06T12:12:07.909Z,1011.44
2018-09-06T12:13:17.228Z,1011.47
2018-09-06T12:14:27.074Z,1011.44
2018-09-06T12:15:36.660Z,1011.45
2018-09-06T12:16:46.516Z,1011.48
2018-09-06T12:17:56.107Z,1011.46
2018-09-06T12:19:06.227Z,1011.47
2018-09-06T12:20:15.543Z,1011.48
2018-09-06T12:21:25.392Z,1011.45
2018-09-06T12:22:35.520Z,1011.46
2018-09-06T12:23:45.692Z,1011.44
2018-09-06T12:24:55.812Z,1011.4
2018-09-06T12:26:05.401Z,1011.41
2018-09-06T12:27:14.714Z,1011.37
2018-09-06T12:28:24.563Z,1011.35
2018-09-06T12:29:34.148Z,1011.33
2018-09-06T12:30:43.459Z,1011.33
2018-09-06T12:31:53.309Z,1011.32
2018-09-06T12:33:03.191Z,1011.32
2018-09-06T12:34:13.224Z,1011.28
2018-09-06T12:35:23.352Z,1011.29
2018-09-06T12:36:32.660Z,1011.27
2018-09-06T12:37:42.793Z,1011.3
2018-09-06T12:38:52.922Z,1011.25
2018-09-06T12:40:02.779Z,1011.22
2018-09-06T12:41:12.968Z,1011.18
2018-09-06T12:42:22.813Z,1011.24
2018-09-06T12:43:31.860Z,1011.2
2018-09-06T12:44:41.709Z,1011.23
2018-09-06T12:45:51.822Z,1011.21
2018-09-06T12:47:01.674Z,1011.27
2018-09-06T12:48:11.277Z,1011.21
2018-09-06T12:49:21.396Z,1011.2
2018-09-06T12:50:30.742Z,1011.18
2018-09-06T12:51:40.597Z,1011.22
2018-09-06T12:52:50.182Z,1011.22
2018-09-06T12:54:00.029Z,1011.23
2018-09-06T12:55:10.147Z,1011.2
2018-09-06T12:56:19.994Z,1011.17
2018-09-06T12:57:30.011Z,1011.17
2018-09-06T12:58:40.135Z,1011.13
2018-09-06T12:59:49.982Z,1011.12
2018-09-06T13:00:59.828Z,1011.13
2018-09-06T13:02:09.409Z,1011.11
2018-09-06T13:03:18.988Z,1011.12
2018-09-06T13:04:28.894Z,1011.13
2018-09-06T13:05:38.741Z,1011.1
2018-09-06T13:06:48.597Z,1011.07
2018-09-06T13:07:57.648Z,1011.11
2018-09-06T13:09:07.996Z,1011.09
2018-09-06T13:10:17.578Z,1011.09
2018-09-06T13:11:27.705Z,1011.07
2018-09-06T13:12:37.602Z,1011.1
2018-09-06T13:13:47.193Z,1011.05
2018-09-06T13:14:57.040Z,1011.05
2018-09-06T13:16:06.356Z,1011.06
2018-09-06T13:17:16.212Z,1011.08
2018-09-06T13:18:26.121Z,1011.05
2018-09-06T13:19:36.058Z,1011.12
2018-09-06T13:20:45.915Z,1011.1
2018-09-06T13:21:55.770Z,1011.17
2018-09-06T13:23:05.882Z,1011.19
2018-09-06T13:24:15.461Z,1011.19
2018-09-06T13:25:25.313Z,1011.21
2018-09-06T13:26:35.435Z,1011.24
2018-09-06T13:27:45.291Z,1011.25
2018-09-06T13:28:55.417Z,1011.23
2018-09-06T13:30:05.284Z,1011.22
2018-09-06T13:31:15.137Z,1011.2
2018-09-06T13:32:24.442Z,1011.26
2018-09-06T13:33:33.477Z,1011.26
2018-09-06T13:34:43.595Z,1011.29
2018-09-06T13:35:53.178Z,1011.25
2018-09-06T13:37:02.766Z,1011.26
2018-09-06T13:38:11.800Z,1011.28
2018-09-06T13:39:21.374Z,1011.32
2018-09-06T13:40:30.966Z,1011.33
2018-09-06T13:41:41.089Z,1011.33
2018-09-06T13:42:50.669Z,1011.39
2018-09-06T13:43:59.977Z,1011.36
2018-09-06T13:45:09.553Z,1011.41
2018-09-06T13:46:19.138Z,1011.47
2018-09-06T13:47:29.269Z,1011.45
2018-09-06T13:48:39.118Z,1011.44
2018-09-06T13:49:48.968Z,1011.42
2018-09-06T13:50:58.834Z,1011.33
2018-09-06T13:52:08.752Z,1011.29
2018-09-06T13:53:19.473Z,1011.29
2018-09-06T13:54:29.362Z,1011.26
2018-09-06T13:55:39.477Z,1011.23
2018-09-06T13:56:48.790Z,1011.21
2018-09-06T13:57:58.634Z,1011.22
2018-09-06T13:59:08.475Z,1011.26
2018-09-06T14:00:18.337Z,1011.3
2018-09-06T14:01:28.195Z,1011.39
2018-09-06T14:02:37.781Z,1011.32
2018-09-06T14:03:47.096Z,1011.37
2018-09-06T14:04:56.704Z,1011.38
2018-09-06T14:06:07.116Z,1011.37
2018-09-06T14:07:16.707Z,1011.47
2018-09-06T14:08:26.561Z,1011.38